Time;durP1;ratioP1;P1;durP2;ratioP2;P2;SDS_P1;SDS_P2;PMS_P1;PMS_P2;Temp;Humidity;BMP_temperature;BMP_pressure;BME280_temperature;BME280_humidity;BME280_pressure;Samples;Min_cycle;Max_cycle;Signal;HPM_P1;HPM_P2
2022/01/29 00:00:16;;;;;;;22.33;8.32;;;;;;;;;;6254418;28;20290;-73
2022/01/29 00:03:17;;;;;;;13.60;4.53;;;;;;;;;;6254129;28;20104;-73
2022/01/29 00:06:17;;;;;;;17.98;6.32;;;;;;;;;;6240322;28;20024;-73
2022/01/29 00:09:17;;;;;;;14.80;6.40;;;;;;;;;;6263624;28;20394;-73
2022/01/29 00:12:17;;;;;;;17.08;6.28;;;;;;;;;;6267632;28;20070;-73
2022/01/29 00:15:17;;;;;;;15.47;6.83;;;;;;;;;;6267317;28;20024;-73
2022/01/29 00:18:18;;;;;;;23.73;10.75;;;;;;;;;;6267650;28;20291;-73
2022/01/29 00:21:18;;;;;;;17.17;7.03;;;;;;;;;;6267470;28;20066;-73
2022/01/29 00:24:18;;;;;;;9.32;3.78;;;;;;;;;;6268132;28;20280;-73
2022/01/29 00:27:20;;;;;;;9.38;4.47;;;;;;;;;;6269025;28;20027;-73
2022/01/29 00:30:25;;;;;;;14.27;5.10;;;;;;;;;;6267766;28;20528;-73
2022/01/29 00:33:25;;;;;;;16.67;5.57;;;;;;;;;;6267794;28;20140;-72
2022/01/29 00:36:26;;;;;;;13.57;5.13;;;;;;;;;;6266617;28;20025;-72
2022/01/29 00:39:26;;;;;;;19.15;6.55;;;;;;;;;;6266975;28;20643;-70
2022/01/29 00:42:26;;;;;;;10.40;3.90;;;;;;;;;;6250061;28;20036;-71
2022/01/29 00:45:26;;;;;;;11.32;5.35;;;;;;;;;;6267504;28;20051;-71
2022/01/29 00:48:26;;;;;;;2.60;1.70;;;;;;;;;;6249599;28;20205;-70
2022/01/29 00:51:27;;;;;;;15.90;5.67;;;;;;;;;;6266813;28;20397;-70
2022/01/29 00:54:27;;;;;;;14.93;5.93;;;;;;;;;;6265552;28;20729;-70
2022/01/29 00:57:30;;;;;;;8.95;4.50;;;;;;;;;;6246746;28;20053;-70
2022/01/29 01:00:30;;;;;;;20.88;6.93;;;;;;;;;;6255672;28;20013;-69
2022/01/29 01:03:30;;;;;;;18.42;8.25;;;;;;;;;;6250309;28;20024;-69
2022/01/29 01:06:30;;;;;;;11.57;5.32;;;;;;;;;;6259040;28;20021;-69
2022/01/29 01:09:30;;;;;;;20.13;7.47;;;;;;;;;;6250468;28;20017;-69
2022/01/29 01:12:31;;;;;;;6.75;2.72;;;;;;;;;;6241951;28;20021;-69
2022/01/29 01:15:31;;;;;;;14.10;6.13;;;;;;;;;;6240205;28;20295;-69
2022/01/29 01:18:31;;;;;;;12.43;6.00;;;;;;;;;;6248029;28;20264;-69
2022/01/29 01:21:31;;;;;;;13.30;5.57;;;;;;;;;;6244804;28;20100;-69
2022/01/29 01:24:31;;;;;;;9.70;4.72;;;;;;;;;;6226737;28;20256;-69
2022/01/29 01:27:32;;;;;;;7.50;5.57;;;;;;;;;;6246114;28;20032;-69
2022/01/29 01:30:32;;;;;;;17.13;6.20;;;;;;;;;;6241998;28;20078;-69
2022/01/29 01:33:33;;;;;;;7.00;4.55;;;;;;;;;;6252833;28;20357;-69
2022/01/29 01:36:39;;;;;;;7.65;3.88;;;;;;;;;;6270871;28;20354;-69
2022/01/29 01:39:41;;;;;;;21.20;7.30;;;;;;;;;;6270908;28;20024;-69
2022/01/29 01:42:41;;;;;;;15.05;6.45;;;;;;;;;;6270629;28;20068;-69
2022/01/29 01:45:41;;;;;;;19.25;5.55;;;;;;;;;;6270430;28;20283;-68
2022/01/29 01:48:42;;;;;;;23.83;9.40;;;;;;;;;;6251620;28;20481;-69
2022/01/29 01:51:42;;;;;;;19.50;7.80;;;;;;;;;;6233466;28;20733;-69
2022/01/29 01:54:43;;;;;;;26.48;10.82;;;;;;;;;;6251717;28;20044;-69
2022/01/29 01:57:43;;;;;;;18.80;7.15;;;;;;;;;;6248027;28;20026;-69
2022/01/29 02:00:43;;;;;;;17.63;7.57;;;;;;;;;;6260691;28;20016;-69
2022/01/29 02:03:45;;;;;;;17.77;7.80;;;;;;;;;;6252776;28;20029;-69
2022/01/29 02:06:46;;;;;;;10.75;5.10;;;;;;;;;;6264863;28;20013;-69
2022/01/29 02:09:46;;;;;;;20.60;7.03;;;;;;;;;;6251501;28;20044;-69
2022/01/29 02:13:05;;;;;;;16.27;6.43;;;;;;;;;;6245328;28;20037;-69
2022/01/29 02:16:05;;;;;;;14.88;8.20;;;;;;;;;;6244681;28;20108;-69
2022/01/29 02:19:05;;;;;;;23.77;8.00;;;;;;;;;;6245210;28;20511;-69
2022/01/29 02:22:06;;;;;;;14.70;6.47;;;;;;;;;;6244949;28;20485;-69
2022/01/29 02:25:06;;;;;;;17.08;7.25;;;;;;;;;;6244663;28;20256;-69
2022/01/29 02:28:08;;;;;;;6.85;4.00;;;;;;;;;;6244775;28;20478;-69
2022/01/29 02:31:09;;;;;;;10.88;5.82;;;;;;;;;;6262577;28;20038;-69
2022/01/29 02:34:09;;;;;;;9.30;4.35;;;;;;;;;;6269723;28;20044;-69
2022/01/29 02:37:09;;;;;;;23.08;9.20;;;;;;;;;;6242709;28;20018;-69
2022/01/29 02:40:10;;;;;;;9.52;3.97;;;;;;;;;;6244735;28;20048;-69
2022/01/29 02:43:15;;;;;;;20.27;6.50;;;;;;;;;;6244388;28;20106;-69
2022/01/29 02:49:17;;;;;;;13.93;6.00;;;;;;;;;;6244576;28;20744;-69
2022/01/29 02:52:17;;;;;;;13.18;6.00;;;;;;;;;;6254343;28;20027;-70
2022/01/29 02:55:18;;;;;;;16.52;6.00;;;;;;;;;;6266513;28;20428;-70
2022/01/29 02:58:18;;;;;;;9.88;4.10;;;;;;;;;;6244454;28;20017;-70
2022/01/29 03:01:18;;;;;;;10.50;6.40;;;;;;;;;;6263998;28;20096;-70
2022/01/29 03:04:18;;;;;;;18.35;8.80;;;;;;;;;;6246553;28;20024;-69
2022/01/29 03:07:19;;;;;;;9.83;6.97;;;;;;;;;;6262906;28;20017;-69
2022/01/29 03:10:21;;;;;;;28.15;12.48;;;;;;;;;;6266918;28;20267;-69
2022/01/29 03:13:22;;;;;;;17.05;7.72;;;;;;;;;;6268492;28;20079;-69
2022/01/29 03:16:22;;;;;;;17.70;9.43;;;;;;;;;;6268485;28;20021;-69
2022/01/29 03:19:22;;;;;;;17.10;9.33;;;;;;;;;;6268304;28;20263;-69
2022/01/29 03:22:22;;;;;;;29.45;9.35;;;;;;;;;;6268799;28;20278;-69
2022/01/29 03:25:22;;;;;;;16.40;7.93;;;;;;;;;;6268015;28;20282;-69
2022/01/29 03:28:23;;;;;;;21.87;9.53;;;;;;;;;;6268300;28;20013;-69
2022/01/29 03:31:26;;;;;;;20.58;6.97;;;;;;;;;;6267892;28;20307;-69
2022/01/29 03:34:26;;;;;;;23.50;9.52;;;;;;;;;;6250221;28;20263;-69
2022/01/29 03:37:26;;;;;;;16.75;10.05;;;;;;;;;;6267359;28;20539;-69
2022/01/29 03:40:28;;;;;;;22.40;10.40;;;;;;;;;;6268096;28;20345;-69
2022/01/29 03:43:32;;;;;;;5.07;4.40;;;;;;;;;;6267750;28;20033;-69
2022/01/29 03:46:32;;;;;;;20.20;9.90;;;;;;;;;;6268376;28;20033;-69
2022/01/29 03:49:33;;;;;;;20.70;8.50;;;;;;;;;;6267491;28;20078;-69
2022/01/29 03:52:33;;;;;;;26.58;11.10;;;;;;;;;;6266301;28;20060;-68
2022/01/29 03:55:33;;;;;;;26.77;14.13;;;;;;;;;;6262632;28;20116;-68
2022/01/29 03:58:33;;;;;;;23.53;10.57;;;;;;;;;;6225027;28;20624;-69
2022/01/29 04:01:33;;;;;;;19.80;9.93;;;;;;;;;;6264528;28;20274;-68
2022/01/29 04:04:34;;;;;;;27.40;11.70;;;;;;;;;;6245146;28;20347;-68
2022/01/29 04:07:34;;;;;;;44.42;21.80;;;;;;;;;;6266582;28;20266;-68
2022/01/29 04:10:34;;;;;;;45.25;21.13;;;;;;;;;;6242796;28;20017;-68
2022/01/29 04:13:36;;;;;;;38.60;19.85;;;;;;;;;;6224474;28;20036;-68
2022/01/29 04:16:36;;;;;;;39.30;19.50;;;;;;;;;;6242518;28;20437;-68
2022/01/29 04:19:37;;;;;;;28.38;13.98;;;;;;;;;;6242604;28;20033;-68
2022/01/29 04:22:37;;;;;;;39.35;18.33;;;;;;;;;;6242802;28;20291;-68
2022/01/29 04:25:37;;;;;;;40.33;18.88;;;;;;;;;;6242216;28;20036;-68
2022/01/29 04:28:41;;;;;;;32.80;16.25;;;;;;;;;;6242927;28;20428;-68
2022/01/29 04:31:58;;;;;;;39.08;19.02;;;;;;;;;;6265943;28;20024;-68
2022/01/29 04:34:58;;;;;;;52.45;26.40;;;;;;;;;;6267582;28;20035;-68
2022/01/29 04:37:58;;;;;;;50.08;29.10;;;;;;;;;;6267138;28;20380;-68
2022/01/29 04:41:04;;;;;;;41.85;20.40;;;;;;;;;;6267229;28;20388;-68
2022/01/29 04:44:04;;;;;;;42.03;19.50;;;;;;;;;;6267060;28;20029;-68
2022/01/29 04:47:04;;;;;;;55.75;28.77;;;;;;;;;;6266712;28;20048;-68
2022/01/29 04:50:05;;;;;;;71.22;34.58;;;;;;;;;;6266573;28;20067;-68
2022/01/29 04:53:05;;;;;;;64.78;32.47;;;;;;;;;;6267507;28;20086;-68
2022/01/29 04:56:06;;;;;;;57.20;29.83;;;;;;;;;;6262093;28;20030;-68
2022/01/29 04:59:06;;;;;;;37.37;17.90;;;;;;;;;;6249044;28;20037;-68
2022/01/29 05:02:06;;;;;;;32.73;19.30;;;;;;;;;;6267555;28;20021;-68
2022/01/29 05:05:07;;;;;;;40.27;20.87;;;;;;;;;;6252942;28;20103;-68
2022/01/29 05:08:07;;;;;;;40.93;22.33;;;;;;;;;;6266463;28;20496;-68
2022/01/29 05:11:08;;;;;;;64.63;32.95;;;;;;;;;;6228945;28;20030;-67
2022/01/29 05:14:16;;;;;;;55.13;28.50;;;;;;;;;;6246587;28;20053;-67
2022/01/29 05:26:50;;;;;;;38.10;19.10;;;;;;;;;;6246535;28;20029;-67
2022/01/29 05:27:14;;;;;;;54.72;27.27;;;;;;;;;;6246184;28;20025;-67
2022/01/29 05:30:15;;;;;;;62.92;32.30;;;;;;;;;;6257319;28;20404;-67
2022/01/29 05:33:15;;;;;;;62.55;33.00;;;;;;;;;;6270843;28;20484;-67
2022/01/29 05:36:15;;;;;;;55.50;24.03;;;;;;;;;;6270336;28;20086;-66
2022/01/29 05:39:16;;;;;;;53.08;22.35;;;;;;;;;;6270732;28;20472;-67
2022/01/29 05:42:16;;;;;;;52.97;22.67;;;;;;;;;;6270605;28;20282;-66
2022/01/29 05:45:16;;;;;;;32.67;18.27;;;;;;;;;;6270546;28;20092;-66
2022/01/29 05:48:16;;;;;;;66.63;28.35;;;;;;;;;;6270579;28;20098;-66
2022/01/29 05:51:16;;;;;;;51.83;20.77;;;;;;;;;;6268929;28;20017;-66
2022/01/29 05:54:17;;;;;;;61.87;27.03;;;;;;;;;;6267374;28;20321;-66
2022/01/29 05:57:17;;;;;;;56.75;23.90;;;;;;;;;;6260262;28;20259;-66
2022/01/29 06:00:17;;;;;;;48.50;19.45;;;;;;;;;;6265432;28;20398;-66
2022/01/29 06:03:17;;;;;;;58.38;23.08;;;;;;;;;;6258236;28;20068;-66
2022/01/29 06:06:17;;;;;;;66.78;30.08;;;;;;;;;;6259310;28;20025;-66
2022/01/29 06:09:18;;;;;;;42.03;20.40;;;;;;;;;;6264253;28;20426;-66
2022/01/29 06:12:18;;;;;;;66.47;31.07;;;;;;;;;;6263989;28;20263;-66
2022/01/29 06:15:18;;;;;;;63.35;25.52;;;;;;;;;;6256357;28;20366;-66
2022/01/29 06:18:20;;;;;;;65.15;30.17;;;;;;;;;;6256459;28;20024;-66
2022/01/29 06:21:20;;;;;;;89.10;38.88;;;;;;;;;;6254215;28;20048;-66
2022/01/29 06:24:21;;;;;;;82.93;36.80;;;;;;;;;;6267541;28;20040;-66
2022/01/29 06:27:22;;;;;;;66.07;27.37;;;;;;;;;;6249745;28;20026;-66
2022/01/29 06:30:22;;;;;;;69.53;26.88;;;;;;;;;;6256285;28;20040;-66
2022/01/29 06:33:22;;;;;;;70.70;32.17;;;;;;;;;;6268299;28;20040;-66
2022/01/29 06:36:22;;;;;;;62.22;27.83;;;;;;;;;;6260810;28;20052;-66
2022/01/29 06:39:23;;;;;;;83.40;36.30;;;;;;;;;;6268257;28;20040;-66
2022/01/29 06:42:23;;;;;;;85.18;35.50;;;;;;;;;;6267943;28;20287;-66
2022/01/29 06:45:23;;;;;;;73.40;29.80;;;;;;;;;;6254084;28;20302;-66
2022/01/29 06:48:23;;;;;;;90.80;39.47;;;;;;;;;;6252328;28;20302;-66
2022/01/29 06:51:24;;;;;;;52.80;23.35;;;;;;;;;;6267743;28;20069;-66
2022/01/29 06:54:24;;;;;;;67.10;32.50;;;;;;;;;;6264903;28;20028;-66
2022/01/29 06:57:24;;;;;;;46.65;22.17;;;;;;;;;;6268916;28;20036;-66
2022/01/29 07:00:24;;;;;;;62.90;30.17;;;;;;;;;;6264088;28;20082;-66
2022/01/29 07:03:25;;;;;;;72.43;34.95;;;;;;;;;;6256199;28;20075;-66
2022/01/29 07:06:25;;;;;;;66.10;29.70;;;;;;;;;;6262203;28;20037;-66
2022/01/29 07:09:26;;;;;;;64.93;29.98;;;;;;;;;;6264511;28;20036;-66
2022/01/29 07:12:26;;;;;;;82.28;37.38;;;;;;;;;;6267948;28;20047;-66
2022/01/29 07:15:26;;;;;;;80.55;39.63;;;;;;;;;;6266296;28;20043;-66
2022/01/29 07:18:26;;;;;;;80.60;41.47;;;;;;;;;;6262370;28;20079;-66
2022/01/29 07:21:27;;;;;;;71.22;31.38;;;;;;;;;;6266840;28;20488;-66
2022/01/29 07:24:27;;;;;;;56.58;24.90;;;;;;;;;;6259848;28;20378;-66
2022/01/29 07:27:27;;;;;;;39.00;18.23;;;;;;;;;;6256087;28;20078;-65
2022/01/29 07:30:27;;;;;;;35.33;17.20;;;;;;;;;;6263231;28;20310;-65
2022/01/29 07:33:28;;;;;;;40.87;17.67;;;;;;;;;;6265732;28;20029;-65
2022/01/29 07:36:28;;;;;;;34.42;14.43;;;;;;;;;;6255690;28;20336;-66
2022/01/29 07:39:28;;;;;;;32.08;15.85;;;;;;;;;;6252877;28;20029;-65
2022/01/29 07:42:29;;;;;;;20.92;9.02;;;;;;;;;;6252728;28;20451;-66
2022/01/29 07:45:29;;;;;;;27.33;12.83;;;;;;;;;;6250258;28;20021;-66
2022/01/29 07:48:30;;;;;;;29.48;11.95;;;;;;;;;;6244494;28;20275;-65
2022/01/29 07:51:30;;;;;;;31.65;13.88;;;;;;;;;;6252652;28;20033;-65
2022/01/29 07:54:30;;;;;;;29.93;12.90;;;;;;;;;;6247572;28;20082;-65
2022/01/29 07:57:30;;;;;;;26.83;9.52;;;;;;;;;;6248793;28;20291;-66
2022/01/29 08:00:31;;;;;;;26.30;10.57;;;;;;;;;;6249888;28;20025;-66
2022/01/29 08:03:31;;;;;;;29.40;13.20;;;;;;;;;;6251858;28;20317;-66
2022/01/29 08:06:31;;;;;;;26.05;11.73;;;;;;;;;;6248845;28;20045;-66
2022/01/29 08:09:31;;;;;;;17.55;7.65;;;;;;;;;;6249918;28;20306;-66
2022/01/29 08:12:32;;;;;;;16.47;7.03;;;;;;;;;;6249308;28;20029;-66
2022/01/29 08:15:32;;;;;;;17.38;8.00;;;;;;;;;;6253320;28;20271;-66
2022/01/29 08:18:32;;;;;;;24.58;7.75;;;;;;;;;;6247497;28;20028;-66
2022/01/29 08:21:32;;;;;;;32.43;10.10;;;;;;;;;;6250353;28;20303;-66
2022/01/29 08:24:33;;;;;;;18.15;8.57;;;;;;;;;;6247299;28;20664;-66
2022/01/29 08:27:33;;;;;;;12.57;6.13;;;;;;;;;;6243601;28;20025;-66
2022/01/29 08:30:34;;;;;;;12.00;6.18;;;;;;;;;;6254297;28;20564;-66
2022/01/29 08:33:34;;;;;;;33.78;10.40;;;;;;;;;;6261649;28;20052;-66
2022/01/29 08:36:34;;;;;;;18.50;7.57;;;;;;;;;;6259436;28;20028;-67
2022/01/29 08:39:34;;;;;;;21.85;8.55;;;;;;;;;;6245804;28;20040;-67
2022/01/29 08:42:35;;;;;;;22.40;9.77;;;;;;;;;;6249184;28;20048;-66
2022/01/29 08:45:35;;;;;;;19.15;7.93;;;;;;;;;;6254910;28;20303;-66
2022/01/29 08:48:35;;;;;;;27.40;11.10;;;;;;;;;;6239595;28;20453;-67
2022/01/29 08:51:36;;;;;;;34.27;11.90;;;;;;;;;;6248446;28;20021;-67
2022/01/29 08:54:36;;;;;;;17.65;8.68;;;;;;;;;;6257656;28;20329;-66
2022/01/29 08:57:36;;;;;;;17.13;6.40;;;;;;;;;;6253933;28;20056;-67
2022/01/29 09:00:38;;;;;;;30.88;12.43;;;;;;;;;;6251966;28;20272;-66
2022/01/29 09:03:38;;;;;;;12.93;6.78;;;;;;;;;;6246793;28;20120;-67
2022/01/29 09:06:39;;;;;;;17.80;6.43;;;;;;;;;;6259995;28;20026;-70
2022/01/29 09:09:43;;;;;;;20.60;7.93;;;;;;;;;;6265330;28;20052;-69
2022/01/29 09:12:44;;;;;;;15.13;7.40;;;;;;;;;;6265701;28;20106;-70
2022/01/29 09:15:44;;;;;;;18.60;7.53;;;;;;;;;;6264927;28;20388;-70
2022/01/29 09:18:44;;;;;;;12.80;4.65;;;;;;;;;;6264653;28;20033;-71
2022/01/29 09:21:44;;;;;;;14.37;6.60;;;;;;;;;;6264952;28;20037;-71
2022/01/29 09:24:45;;;;;;;17.03;6.23;;;;;;;;;;6260618;28;20413;-71
2022/01/29 09:27:45;;;;;;;9.68;4.95;;;;;;;;;;6257937;28;20279;-71
2022/01/29 09:30:45;;;;;;;17.40;6.90;;;;;;;;;;6245124;28;20044;-71
2022/01/29 09:33:45;;;;;;;17.57;5.80;;;;;;;;;;6250002;28;20291;-72
2022/01/29 09:36:45;;;;;;;17.90;6.13;;;;;;;;;;6244956;28;20252;-73
2022/01/29 09:39:46;;;;;;;12.45;5.32;;;;;;;;;;6248266;28;20818;-73
2022/01/29 09:42:49;;;;;;;16.63;4.30;;;;;;;;;;6232752;28;20319;-73
2022/01/29 09:45:50;;;;;;;20.33;7.50;;;;;;;;;;6245005;28;20028;-73
2022/01/29 09:48:51;;;;;;;18.33;5.82;;;;;;;;;;6225671;28;20388;-73
2022/01/29 09:51:51;;;;;;;12.80;4.97;;;;;;;;;;6248487;28;20044;-73
2022/01/29 09:54:51;;;;;;;10.07;4.63;;;;;;;;;;6258762;28;20290;-73
2022/01/29 09:57:54;;;;;;;14.87;5.70;;;;;;;;;;6250642;28;20271;-75
2022/01/29 10:00:54;;;;;;;18.25;5.88;;;;;;;;;;6234794;28;20264;-76
2022/01/29 10:04:01;;;;;;;25.17;6.70;;;;;;;;;;6264672;28;20032;-75
2022/01/29 10:07:23;;;;;;;19.77;5.22;;;;;;;;;;6258565;28;20032;-76
2022/01/29 10:10:23;;;;;;;21.00;8.57;;;;;;;;;;6251395;28;20056;-75
2022/01/29 10:13:36;;;;;;;20.67;7.03;;;;;;;;;;6252004;28;20021;-76
2022/01/29 10:16:41;;;;;;;18.67;6.38;;;;;;;;;;6252488;28;20275;-76
2022/01/29 10:19:41;;;;;;;10.80;4.38;;;;;;;;;;6233411;28;20059;-76
2022/01/29 10:22:43;;;;;;;24.40;6.73;;;;;;;;;;6233235;28;20029;-77
2022/01/29 10:25:50;;;;;;;18.20;6.93;;;;;;;;;;6258520;28;20291;-77
2022/01/29 10:28:52;;;;;;;11.13;6.50;;;;;;;;;;6251399;28;20425;-77
2022/01/29 10:31:56;;;;;;;16.08;7.32;;;;;;;;;;6248651;28;20357;-78
2022/01/29 10:34:56;;;;;;;13.68;6.43;;;;;;;;;;6236970;28;20028;-77
2022/01/29 10:37:57;;;;;;;13.20;4.72;;;;;;;;;;6244844;28;20410;-78
2022/01/29 10:41:18;;;;;;;15.25;5.57;;;;;;;;;;6237134;28;20028;-78
2022/01/29 10:44:20;;;;;;;16.52;6.38;;;;;;;;;;6252991;28;20061;-77
2022/01/29 10:47:21;;;;;;;19.02;7.80;;;;;;;;;;6255240;28;20377;-77
2022/01/29 10:50:21;;;;;;;17.38;4.40;;;;;;;;;;6250841;28;20044;-78
2022/01/29 10:53:27;;;;;;;28.02;10.57;;;;;;;;;;6256437;28;20017;-77
2022/01/29 10:56:28;;;;;;;18.15;7.85;;;;;;;;;;6239642;28;20397;-77
2022/01/29 10:59:29;;;;;;;12.30;6.07;;;;;;;;;;6247201;28;20036;-78
2022/01/29 11:02:30;;;;;;;18.52;8.10;;;;;;;;;;6260891;28;20283;-79
2022/01/29 11:05:33;;;;;;;12.53;6.43;;;;;;;;;;6234814;28;20017;-78
2022/01/29 11:08:33;;;;;;;21.65;7.82;;;;;;;;;;6260396;28;20022;-78
2022/01/29 11:11:35;;;;;;;16.80;7.65;;;;;;;;;;6242416;28;20049;-79
2022/01/29 11:14:35;;;;;;;31.75;10.27;;;;;;;;;;6244102;28;20509;-78
2022/01/29 11:17:36;;;;;;;28.50;9.95;;;;;;;;;;6243816;28;20123;-79
2022/01/29 11:20:36;;;;;;;19.02;6.30;;;;;;;;;;6226448;28;20088;-79
2022/01/29 11:23:36;;;;;;;33.67;11.75;;;;;;;;;;6225877;28;20040;-79
2022/01/29 11:26:37;;;;;;;15.55;6.85;;;;;;;;;;6244660;28;20110;-79
2022/01/29 11:29:37;;;;;;;16.27;6.47;;;;;;;;;;6250936;28;20053;-79
2022/01/29 11:32:40;;;;;;;18.55;8.43;;;;;;;;;;6249911;28;20025;-79
2022/01/29 11:35:55;;;;;;;23.50;8.00;;;;;;;;;;6249478;28;20078;-79
2022/01/29 11:39:15;;;;;;;28.65;7.88;;;;;;;;;;6249742;28;20062;-79
2022/01/29 11:42:15;;;;;;;20.40;7.60;;;;;;;;;;6267402;28;20063;-79
2022/01/29 11:45:40;;;;;;;19.23;7.43;;;;;;;;;;6250094;28;20024;-79
2022/01/29 11:49:00;;;;;;;27.67;10.13;;;;;;;;;;6240959;28;20047;-79
2022/01/29 11:52:19;;;;;;;14.45;6.85;;;;;;;;;;6265484;28;20098;-79
2022/01/29 11:55:33;;;;;;;29.67;8.70;;;;;;;;;;6226708;28;20589;-79
2022/01/29 11:58:33;;;;;;;16.27;8.07;;;;;;;;;;6266098;28;20013;-79
2022/01/29 12:01:34;;;;;;;19.13;6.40;;;;;;;;;;6227752;28;20109;-79
2022/01/29 12:04:54;;;;;;;15.10;5.68;;;;;;;;;;6245369;28;20614;-79
2022/01/29 12:08:05;;;;;;;14.20;5.53;;;;;;;;;;6246425;28;20508;-79
2022/01/29 12:11:09;;;;;;;22.58;6.40;;;;;;;;;;6243101;28;20410;-79
2022/01/29 12:14:12;;;;;;;19.08;6.38;;;;;;;;;;6225761;28;20049;-77
2022/01/29 12:17:31;;;;;;;20.60;8.48;;;;;;;;;;6225503;28;20029;-78
2022/01/29 12:20:32;;;;;;;8.82;4.35;;;;;;;;;;6226028;28;20136;-78
2022/01/29 12:23:44;;;;;;;12.37;5.80;;;;;;;;;;6243107;28;20493;-77
2022/01/29 12:26:52;;;;;;;18.13;8.27;;;;;;;;;;6243023;28;20728;-77
2022/01/29 12:29:52;;;;;;;18.42;8.18;;;;;;;;;;6251110;28;20412;-78
2022/01/29 12:32:55;;;;;;;14.03;6.90;;;;;;;;;;6267650;28;20021;-78
2022/01/29 12:36:03;;;;;;;11.80;6.38;;;;;;;;;;6267365;28;20251;-78
2022/01/29 12:39:06;;;;;;;23.40;9.98;;;;;;;;;;6267693;28;20036;-77
2022/01/29 12:45:13;;;;;;;28.40;10.00;;;;;;;;;;6267687;28;20036;-77
2022/01/29 12:48:13;;;;;;;16.75;7.20;;;;;;;;;;6267103;28;20032;-78
2022/01/29 12:51:13;;;;;;;11.82;6.28;;;;;;;;;;6267456;28;20096;-78
2022/01/29 12:54:14;;;;;;;18.75;7.65;;;;;;;;;;6266051;28;20029;-78
2022/01/29 12:57:14;;;;;;;27.83;11.02;;;;;;;;;;6231293;28;20361;-78
2022/01/29 13:00:18;;;;;;;18.53;9.00;;;;;;;;;;6235973;28;20021;-78
2022/01/29 13:03:27;;;;;;;30.67;11.43;;;;;;;;;;6252814;28;20310;-79
2022/01/29 13:06:27;;;;;;;12.55;7.50;;;;;;;;;;6241687;28;20521;-78
2022/01/29 13:09:27;;;;;;;29.27;7.03;;;;;;;;;;6250986;28;20022;-78
2022/01/29 13:12:27;;;;;;;21.00;11.02;;;;;;;;;;6243257;28;20321;-78
2022/01/29 13:15:48;;;;;;;19.27;5.93;;;;;;;;;;6254901;28;20079;-78
2022/01/29 13:18:49;;;;;;;23.95;11.27;;;;;;;;;;6261334;28;20290;-79
2022/01/29 13:21:49;;;;;;;23.33;8.85;;;;;;;;;;6258416;28;20056;-79
2022/01/29 13:24:51;;;;;;;23.42;7.15;;;;;;;;;;6257669;28;20026;-78
2022/01/29 13:28:02;;;;;;;23.55;10.05;;;;;;;;;;6245236;28;20479;-78
2022/01/29 13:31:03;;;;;;;19.63;6.82;;;;;;;;;;6266131;28;20077;-79
2022/01/29 13:34:04;;;;;;;28.65;9.88;;;;;;;;;;6269584;28;20025;-78
2022/01/29 13:37:22;;;;;;;21.05;9.90;;;;;;;;;;6255767;28;20049;-78
2022/01/29 13:40:36;;;;;;;20.17;10.50;;;;;;;;;;6251981;28;20411;-78
2022/01/29 13:43:39;;;;;;;13.88;7.20;;;;;;;;;;6248533;28;20017;-78
2022/01/29 13:46:39;;;;;;;14.25;6.85;;;;;;;;;;6246846;28;20112;-78
2022/01/29 13:49:44;;;;;;;20.67;7.38;;;;;;;;;;6249514;28;20086;-78
2022/01/29 13:53:00;;;;;;;23.02;9.70;;;;;;;;;;6256705;28;20025;-78
2022/01/29 13:56:01;;;;;;;24.00;9.43;;;;;;;;;;6263457;28;20021;-78
2022/01/29 13:59:03;;;;;;;18.92;8.00;;;;;;;;;;6256860;28;20380;-78
2022/01/29 14:02:04;;;;;;;21.52;7.03;;;;;;;;;;6246654;28;20040;-78
2022/01/29 14:05:06;;;;;;;12.32;7.43;;;;;;;;;;6262853;28;20024;-78
2022/01/29 14:08:07;;;;;;;;;;;;;;;;;;6267954;28;20100;-78
2022/01/29 14:11:14;;;;;;;20.00;7.20;;;;;;;;;;6242869;28;19915;-78
2022/01/29 14:14:14;;;;;;;16.70;7.53;;;;;;;;;;6254046;28;20033;-78
2022/01/29 14:17:22;;;;;;;19.90;8.43;;;;;;;;;;6238521;28;20987;-78
2022/01/29 14:20:23;;;;;;;21.83;7.82;;;;;;;;;;6230848;28;20267;-78
2022/01/29 14:23:23;;;;;;;15.37;7.37;;;;;;;;;;6259689;28;20028;-78
2022/01/29 14:26:23;;;;;;;21.43;10.07;;;;;;;;;;6249907;28;20022;-78
2022/01/29 14:29:24;;;;;;;29.25;9.77;;;;;;;;;;6259445;28;20511;-78
2022/01/29 14:32:26;;;;;;;18.60;9.77;;;;;;;;;;6260443;28;20291;-78
2022/01/29 14:35:26;;;;;;;20.67;10.30;;;;;;;;;;6242180;28;20057;-78
2022/01/29 14:38:27;;;;;;;14.93;7.60;;;;;;;;;;6259398;28;20492;-77
2022/01/29 14:41:27;;;;;;;15.07;8.40;;;;;;;;;;6259939;28;20283;-77
2022/01/29 14:44:28;;;;;;;24.13;8.80;;;;;;;;;;6243312;28;20547;-77
2022/01/29 14:47:29;;;;;;;17.02;8.98;;;;;;;;;;6258039;28;20025;-77
2022/01/29 14:50:29;;;;;;;15.20;7.70;;;;;;;;;;6258877;28;20021;-77
2022/01/29 14:53:30;;;;;;;25.20;10.90;;;;;;;;;;6265164;28;20025;-77
2022/01/29 14:56:30;;;;;;;25.67;9.57;;;;;;;;;;6249689;28;20116;-77
2022/01/29 14:59:30;;;;;;;19.63;9.40;;;;;;;;;;6267666;28;20751;-77
2022/01/29 15:02:31;;;;;;;13.20;8.18;;;;;;;;;;6261609;28;20060;-78
2022/01/29 15:05:31;;;;;;;14.95;7.50;;;;;;;;;;6235421;28;20044;-78
2022/01/29 15:08:31;;;;;;;19.95;11.32;;;;;;;;;;6260855;28;20064;-78
2022/01/29 15:11:31;;;;;;;21.13;12.30;;;;;;;;;;6253208;28;20021;-77
2022/01/29 15:14:32;;;;;;;21.58;11.95;;;;;;;;;;6259429;28;20027;-77
2022/01/29 15:17:33;;;;;;;21.67;12.03;;;;;;;;;;6237996;28;20055;-77
2022/01/29 15:20:33;;;;;;;25.67;12.38;;;;;;;;;;6256872;28;20272;-76
2022/01/29 15:23:33;;;;;;;20.35;11.95;;;;;;;;;;6229179;28;20036;-75
2022/01/29 15:26:34;;;;;;;32.38;14.65;;;;;;;;;;6228439;28;20136;-75
2022/01/29 15:29:35;;;;;;;25.75;10.90;;;;;;;;;;6239176;28;20053;-75
2022/01/29 15:32:36;;;;;;;25.25;13.13;;;;;;;;;;6250104;28;20422;-76
2022/01/29 15:35:36;;;;;;;17.40;9.35;;;;;;;;;;6267616;28;20027;-75
2022/01/29 15:38:37;;;;;;;24.40;12.45;;;;;;;;;;6267312;28;20468;-75
2022/01/29 15:41:37;;;;;;;24.45;13.18;;;;;;;;;;6245690;28;20141;-75
2022/01/29 15:44:38;;;;;;;18.27;8.97;;;;;;;;;;6267112;28;20025;-75
2022/01/29 15:47:38;;;;;;;23.83;11.52;;;;;;;;;;6248443;28;20670;-74
2022/01/29 15:50:39;;;;;;;19.70;9.43;;;;;;;;;;6267449;28;20071;-74
2022/01/29 15:53:39;;;;;;;20.38;10.65;;;;;;;;;;6262719;28;20366;-74
2022/01/29 15:56:39;;;;;;;17.00;6.72;;;;;;;;;;6260586;28;20377;-74
2022/01/29 15:59:40;;;;;;;20.17;11.27;;;;;;;;;;6258546;28;20362;-74
2022/01/29 16:02:43;;;;;;;33.08;11.55;;;;;;;;;;6238340;28;20644;-74
2022/01/29 16:05:45;;;;;;;16.70;10.32;;;;;;;;;;6243050;28;20090;-74
2022/01/29 16:08:50;;;;;;;16.98;8.80;;;;;;;;;;6262961;28;20025;-74
2022/01/29 16:11:50;;;;;;;21.80;9.75;;;;;;;;;;6228411;28;20435;-74
2022/01/29 16:14:50;;;;;;;25.13;12.63;;;;;;;;;;6254506;28;20037;-73
2022/01/29 16:17:52;;;;;;;20.30;11.50;;;;;;;;;;6239987;28;20267;-73
2022/01/29 16:20:53;;;;;;;;;;;;;;;;;;6261785;28;20595;-73
2022/01/29 16:23:53;;;;;;;18.77;8.00;;;;;;;;;;6246061;28;19920;-73
2022/01/29 16:26:53;;;;;;;15.73;10.27;;;;;;;;;;6267107;28;20025;-72
2022/01/29 16:29:53;;;;;;;15.38;8.20;;;;;;;;;;6266236;28;20309;-73
2022/01/29 16:32:54;;;;;;;21.80;11.23;;;;;;;;;;6266672;28;20457;-72
2022/01/29 16:35:54;;;;;;;18.60;10.45;;;;;;;;;;6247605;28;20023;-72
2022/01/29 16:38:55;;;;;;;14.05;10.00;;;;;;;;;;6248042;28;20074;-72
2022/01/29 16:41:55;;;;;;;14.68;7.82;;;;;;;;;;6254418;28;20325;-72
2022/01/29 16:44:55;;;;;;;18.63;8.63;;;;;;;;;;6255794;28;20036;-72
2022/01/29 16:47:56;;;;;;;13.17;6.33;;;;;;;;;;6246454;28;20013;-72
2022/01/29 16:50:56;;;;;;;18.87;9.67;;;;;;;;;;6246299;28;20256;-73
2022/01/29 16:53:57;;;;;;;18.10;10.13;;;;;;;;;;6257557;28;20283;-72
2022/01/29 16:56:57;;;;;;;18.63;10.65;;;;;;;;;;6256259;28;20480;-72
2022/01/29 16:59:57;;;;;;;21.98;11.88;;;;;;;;;;6241421;28;20032;-72
2022/01/29 17:02:58;;;;;;;22.67;13.17;;;;;;;;;;6260720;28;20553;-72
2022/01/29 17:05:58;;;;;;;20.20;12.52;;;;;;;;;;6259088;28;20263;-72
2022/01/29 17:08:59;;;;;;;25.60;11.03;;;;;;;;;;6258251;28;20432;-72
2022/01/29 17:11:59;;;;;;;24.60;13.02;;;;;;;;;;6257906;28;20271;-71
2022/01/29 17:14:59;;;;;;;23.15;10.85;;;;;;;;;;6250597;28;20043;-71
2022/01/29 17:18:00;;;;;;;14.87;9.37;;;;;;;;;;6267523;28;20538;-70
2022/01/29 17:21:00;;;;;;;17.25;7.93;;;;;;;;;;6269308;28;20267;-72
2022/01/29 17:24:00;;;;;;;23.77;13.77;;;;;;;;;;6269714;28;20112;-72
2022/01/29 17:27:00;;;;;;;13.30;7.45;;;;;;;;;;6270223;28;20260;-72
2022/01/29 17:30:00;;;;;;;20.67;11.73;;;;;;;;;;6269249;28;20041;-72
2022/01/29 17:33:01;;;;;;;22.38;9.43;;;;;;;;;;6269463;28;20255;-72
2022/01/29 17:36:03;;;;;;;23.83;13.85;;;;;;;;;;6251546;28;20009;-72
2022/01/29 17:39:03;;;;;;;15.90;8.30;;;;;;;;;;6269403;28;20095;-72
2022/01/29 17:42:04;;;;;;;24.05;11.82;;;;;;;;;;6269345;28;20042;-72
2022/01/29 17:45:05;;;;;;;23.33;10.90;;;;;;;;;;6269400;28;20438;-72
2022/01/29 17:48:05;;;;;;;23.23;11.60;;;;;;;;;;6269781;28;20100;-72
2022/01/29 17:51:05;;;;;;;26.87;13.30;;;;;;;;;;6259549;28;20539;-72
2022/01/29 17:54:06;;;;;;;18.37;10.57;;;;;;;;;;6253800;28;20260;-72
2022/01/29 17:57:06;;;;;;;22.90;11.07;;;;;;;;;;6254988;28;20370;-72
2022/01/29 18:00:07;;;;;;;26.25;14.80;;;;;;;;;;6264930;28;20260;-72